Princeton, CA (95970)

10:03 AM PDT on October 01, 2014 (GMT -0700)
The Ranch | Change Station
CLOSE
Current Station
Personal Weather Station
Location: Live Oak, CA
Elevation: 79 ft
Nearby Weather Stations

Elev 79 ft 39.30 °N, 121.83 °W | Updated 6 seconds ago

Clear
Clear
70.9 °F
Feels Like 77 °F
N
4.0
Wind Variable Wind from NW
Gusts 11.0 mph

Today
High -- | Low -- °F
--% Chance of Precip.
Yesterday
High -- | Low -- °F
Precip. -- in
7:04 AM 6:50 PM
Waxing Crescent, 49% visible
Pressure 29.96 in
Visibility 10.0 miles
Clouds Clear
Heat Index 77 °F
Dew Point 43 °F
Humidity 37%
Rainfall 0.00 in
Snow Depth 0 in , 0 in , 4 in
UV 3 out of 12
Pollen 6.40 out of 12
Ozone Good
Flu Activity Not available.
METAR KOVE 011653Z AUTO 31011G18KT 10SM CLR 21/06 A2996 RMK AO2 SLP146 T02060056

More Conditions Fewer Conditions

Pressure 29.96 in
Visibility 10.0 miles
Clouds Clear
Heat Index 77 °F
Dew Point 43 °F
Humidity 37%
Rainfall 0.00 in
Snow Depth 0 in , 0 in , 4 in
UV 3 out of 12
Pollen 6.40 out of 12
Ozone Good
Flu Activity Not available.
METAR KOVE 011653Z AUTO 31011G18KT 10SM CLR 21/06 A2996 RMK AO2 SLP146 T02060056

More Conditions Fewer Conditions

10-Day Weather Forecast

Almanac

Astronomy

Oct. 01, 2014 Rise Set
Actual Time 7:04 AM PDT 6:50 PM PDT
Civil Twilight 6:37 AM PDT 7:17 PM PDT
Nautical Twilight 6:06 AM PDT 7:48 PM PDT
Astronomical Twilight 5:35 AM PDT 8:19 PM PDT
Moon 2:08 PM PDT No Moon Set
Length of Visible Light 12h 39m
Length of Day
11h 46m
Tomorrow will be 2m 33s shorter.
Waxing Crescent, 49% of the Moon is Illuminated
Today
Waxing Crescent
Oct 1
First Quarter
Oct 8
Full
Oct 15
Last Quarter
Oct 23
New

Today's Extremes

State Highs State Lows

Community

WunderPhotos

Upload Photos

1,757,985 photos uploaded!

WunderBlogs® & News

By Dr. Jeff Masters
Director of Meteorology, Weather Underground
By Kari Strenfel
Meteorologist, Weather Underground
By Christopher C. Burt
Weather Historian, Weather Underground
October 1, 2014
October 1, 2014
October 1, 2014

Nearby

Air Quality

  Air Quality AQ Index Pollutant
Yesterday Good
PM2.5
Current Good
OZONE
Wednesday Moderate
OZONE
Thursday Moderate
OZONE
Friday Moderate
OZONE
Saturday Moderate
OZONE

Snow Depth

Station Depth Elevation
Echo Peak 0 in 7800 ft
Blue Lakes 0 in 8000 ft
CSS Lab 4 in 6900 ft
Heavenly Valley 0 in 8850 ft
Hagan's Meadow 0 in 8000 ft

Earthquake Activity

City Distance Mag. Time & Date
East Foothills, California 136 miles 2.6 3:34 PM PDT
2014-09-30
American Canyon, California 86 miles 2.5 12:17 AM PDT
2014-09-29
Minimum magnitude displayed is 2.5.

Coastal Water Temperatures

Place Temperature
No Stations Reporting

Nearby Weather Stations